TimeAST,TemperatureF,Dew PointF,Humidity,Sea Level PressureIn,VisibilityMPH,Wind Direction,Wind SpeedMPH,Gust SpeedMPH,PrecipitationIn,Events,Conditions,WindDirDegrees,DateUTC
12:00 AM,19.2,16.5,89,-9999,-9999.0,North,-9999.0,-,N/A,,Unknown,0,2012-12-26 04:00:00
1:00 AM,19.0,16.3,89,-9999,-9999.0,North,-9999.0,-,N/A,,Unknown,0,2012-12-26 05:00:00
2:00 AM,21.6,18.7,89,-9999,-9999.0,North,-9999.0,-,N/A,,Unknown,0,2012-12-26 06:00:00
3:00 AM,22.8,19.8,88,-9999,-9999.0,North,-9999.0,-,N/A,,Unknown,0,2012-12-26 07:00:00
4:00 AM,24.1,20.7,87,-9999,-9999.0,North,-9999.0,-,N/A,,Unknown,0,2012-12-26 08:00:00
5:00 AM,24.6,21.4,87,-9999,-9999.0,North,-9999.0,-,N/A,,Unknown,0,2012-12-26 09:00:00
6:00 AM,24.8,21.6,87,-9999,-9999.0,North,-9999.0,-,N/A,,Unknown,0,2012-12-26 10:00:00
7:00 AM,24.6,21.6,88,-9999,-9999.0,North,-9999.0,-,N/A,,Unknown,0,2012-12-26 11:00:00
8:00 AM,25.2,21.9,87,-9999,-9999.0,North,-9999.0,-,N/A,,Unknown,0,2012-12-26 12:00:00
9:00 AM,25.3,22.1,87,-9999,-9999.0,North,-9999.0,-,N/A,,Unknown,0,2012-12-26 13:00:00
10:00 AM,26.6,22.6,85,-9999,-9999.0,North,-9999.0,-,N/A,,Unknown,0,2012-12-26 14:00:00
11:00 AM,28.6,23.7,82,-9999,-9999.0,North,-9999.0,-,N/A,,Unknown,0,2012-12-26 15:00:00
12:00 PM,30.7,24.3,77,-9999,-9999.0,North,-9999.0,-,N/A,,Unknown,0,2012-12-26 16:00:00
1:00 PM,30.4,24.1,77,-9999,-9999.0,North,-9999.0,-,N/A,,Unknown,0,2012-12-26 17:00:00
2:00 PM,30.0,23.7,77,-9999,-9999.0,North,-9999.0,-,N/A,,Unknown,0,2012-12-26 18:00:00
3:00 PM,29.1,23.9,81,-9999,-9999.0,North,-9999.0,-,N/A,,Unknown,0,2012-12-26 19:00:00
4:00 PM,28.9,23.5,80,-9999,-9999.0,North,-9999.0,-,N/A,,Unknown,0,2012-12-26 20:00:00
5:00 PM,27.9,23.0,82,-9999,-9999.0,North,-9999.0,-,N/A,,Unknown,0,2012-12-26 21:00:00
6:00 PM,26.6,22.8,86,-9999,-9999.0,North,-9999.0,-,N/A,,Unknown,0,2012-12-26 22:00:00
7:00 PM,26.2,22.1,84,-9999,-9999.0,North,-9999.0,-,N/A,,Unknown,0,2012-12-26 23:00:00
8:00 PM,25.5,22.1,87,-9999,-9999.0,North,-9999.0,-,N/A,,Unknown,0,2012-12-27 00:00:00
9:00 PM,21.9,19.8,91,-9999,-9999.0,North,-9999.0,-,N/A,,Unknown,0,2012-12-27 01:00:00
10:00 PM,17.8,16.5,95,-9999,-9999.0,North,-9999.0,-,N/A,,Unknown,0,2012-12-27 02:00:00
11:00 PM,20.8,19.9,96,-9999,-9999.0,North,-9999.0,-,N/A,,Unknown,0,2012-12-27 03:00:00